Time;durP1;ratioP1;P1;durP2;ratioP2;P2;SDS_P1;SDS_P2;PMS_P1;PMS_P2;Temp;Humidity;BMP_temperature;BMP_pressure;BME280_temperature;BME280_humidity;BME280_pressure;Samples;Min_cycle;Max_cycle;Signal;HPM_P1;HPM_P2
2022/12/18 00:01:37;;;;;;;198.57;62.33;;;-3.00;99.90;;;;;;6163285;23;20337;-84
2022/12/18 00:04:04;;;;;;;206.55;62.30;;;-3.00;99.90;;;;;;6162313;23;20374;-84
2022/12/18 00:06:32;;;;;;;215.07;63.15;;;-3.00;99.90;;;;;;6138269;23;20342;-84
2022/12/18 00:08:59;;;;;;;199.38;61.55;;;-3.10;99.90;;;;;;6138692;23;20259;-83
2022/12/18 00:11:28;;;;;;;196.40;63.67;;;-3.10;99.90;;;;;;6139026;23;20005;-83
2022/12/18 00:13:55;;;;;;;195.95;60.92;;;-3.10;99.90;;;;;;6164149;23;20009;-83
2022/12/18 00:16:23;;;;;;;185.73;60.55;;;-3.10;99.90;;;;;;6141061;23;20040;-84
2022/12/18 00:18:50;;;;;;;199.70;61.47;;;-3.10;99.90;;;;;;6165071;23;20068;-84
2022/12/18 00:21:16;;;;;;;201.45;60.92;;;-3.10;99.90;;;;;;6189228;23;20100;-83
2022/12/18 00:23:43;;;;;;;196.15;61.17;;;-3.10;99.90;;;;;;6139843;23;20047;-84
2022/12/18 00:26:24;;;;;;;200.85;62.22;;;-3.10;99.90;;;;;;6188443;23;20394;-84
2022/12/18 00:28:58;;;;;;;188.27;58.70;;;-3.10;99.90;;;;;;6164316;23;20009;-83
2022/12/18 00:31:25;;;;;;;169.93;55.85;;;-3.10;99.90;;;;;;6165663;23;20009;-83
2022/12/18 00:33:55;;;;;;;183.80;56.80;;;-3.10;99.90;;;;;;6189357;23;20009;-84
2022/12/18 00:36:27;;;;;;;195.88;61.55;;;-3.20;99.90;;;;;;6164877;23;20020;-83
2022/12/18 00:38:54;;;;;;;179.90;55.17;;;-3.20;99.90;;;;;;6190181;23;20401;-84
2022/12/18 00:44:09;;;;;;;202.35;61.90;;;-3.20;99.90;;;;;;6163672;23;20019;-84
2022/12/18 00:46:35;;;;;;;186.35;56.33;;;-3.20;99.90;;;;;;6163644;23;20005;-84
2022/12/18 00:49:01;;;;;;;187.07;61.05;;;-3.20;99.90;;;;;;6138815;23;20123;-83
2022/12/18 00:51:27;;;;;;;183.40;58.28;;;-3.20;99.90;;;;;;6163520;23;20393;-83
2022/12/18 00:53:53;;;;;;;176.45;56.45;;;-3.20;99.90;;;;;;6163398;23;20013;-84
2022/12/18 00:56:19;;;;;;;181.32;57.83;;;-3.20;99.90;;;;;;6163668;23;20390;-83
2022/12/18 00:58:46;;;;;;;179.52;56.38;;;-3.20;99.90;;;;;;6188198;23;20370;-82
2022/12/18 01:01:12;;;;;;;166.07;56.53;;;-3.30;99.90;;;;;;6138986;23;20012;-83
2022/12/18 01:03:37;;;;;;;171.77;56.25;;;-3.30;99.90;;;;;;6114540;23;20006;-82
2022/12/18 01:06:08;;;;;;;172.35;58.85;;;-3.30;99.90;;;;;;6152375;23;20032;-84
2022/12/18 01:08:35;;;;;;;164.65;57.22;;;-3.30;99.90;;;;;;6138954;23;20020;-83
2022/12/18 01:11:08;;;;;;;163.63;54.83;;;-3.30;99.90;;;;;;6138875;23;20013;-84
2022/12/18 01:13:34;;;;;;;166.57;56.10;;;-3.20;99.90;;;;;;6139343;23;20270;-84
2022/12/18 01:16:00;;;;;;;147.88;49.70;;;-3.20;99.90;;;;;;6138868;23;20005;-83
2022/12/18 01:18:26;;;;;;;169.95;58.85;;;-3.20;99.90;;;;;;6114865;23;20036;-83
2022/12/18 01:20:52;;;;;;;174.68;57.47;;;-3.30;99.90;;;;;;6114503;23;20005;-83
2022/12/18 01:23:18;;;;;;;172.90;57.08;;;-3.30;99.90;;;;;;6139441;23;20088;-83
2022/12/18 01:25:44;;;;;;;172.55;53.45;;;-3.30;99.90;;;;;;6115142;23;20024;-84
2022/12/18 01:28:10;;;;;;;173.50;56.85;;;-3.30;99.90;;;;;;6115896;23;20013;-84
2022/12/18 01:30:37;;;;;;;167.63;52.40;;;-3.40;99.90;;;;;;6093200;23;20009;-84
2022/12/18 01:33:04;;;;;;;164.23;53.58;;;-3.30;99.90;;;;;;6116618;23;20012;-84
2022/12/18 01:35:31;;;;;;;146.05;47.78;;;-3.40;99.90;;;;;;6164700;23;20012;-84
2022/12/18 01:37:57;;;;;;;166.35;53.72;;;-3.40;99.90;;;;;;6116504;23;20040;-84
2022/12/18 01:40:24;;;;;;;165.25;55.70;;;-3.40;99.90;;;;;;6140843;23;20036;-84
2022/12/18 01:42:54;;;;;;;159.18;54.03;;;-3.40;99.90;;;;;;6141006;23;20009;-84
2022/12/18 01:45:29;;;;;;;158.60;53.10;;;-3.40;99.90;;;;;;6116757;23;20156;-84
2022/12/18 01:48:08;;;;;;;172.35;53.30;;;-3.40;99.90;;;;;;6165992;23;20025;-85
2022/12/18 01:50:43;;;;;;;152.82;49.03;;;-3.40;99.90;;;;;;6141224;23;20278;-84
2022/12/18 01:53:23;;;;;;;159.55;52.40;;;-3.40;99.90;;;;;;6140999;23;20056;-84
2022/12/18 01:55:52;;;;;;;165.30;53.63;;;-3.50;99.90;;;;;;6117710;23;20032;-84
2022/12/18 01:58:22;;;;;;;171.45;50.40;;;-3.50;99.90;;;;;;6141563;23;20013;-83
2022/12/18 02:00:48;;;;;;;179.77;52.97;;;-3.50;99.90;;;;;;6165822;23;20004;-84
2022/12/18 02:03:14;;;;;;;175.38;54.38;;;-3.50;99.90;;;;;;6116495;23;20020;-83
2022/12/18 02:05:46;;;;;;;177.18;51.70;;;-3.60;99.90;;;;;;6125366;23;20040;-84
2022/12/18 02:08:30;;;;;;;170.95;50.63;;;-3.60;99.90;;;;;;6163826;23;20032;-82
2022/12/18 02:11:09;;;;;;;173.45;51.85;;;-3.70;99.90;;;;;;6164694;23;20023;-83
2022/12/18 02:13:57;;;;;;;180.88;52.42;;;-3.60;99.90;;;;;;6164045;23;20001;-82
2022/12/18 02:16:45;;;;;;;172.20;52.30;;;-3.60;99.90;;;;;;6188771;23;20012;-83
2022/12/18 02:19:39;;;;;;;169.82;51.60;;;-3.60;99.90;;;;;;6163416;23;20329;-84
2022/12/18 02:22:23;;;;;;;163.00;48.47;;;-3.70;99.90;;;;;;6163752;23;20045;-83
2022/12/18 02:25:24;;;;;;;166.93;51.75;;;-3.70;99.90;;;;;;6188738;23;20056;-83
2022/12/18 02:27:52;;;;;;;148.02;49.00;;;-3.80;99.90;;;;;;6139422;23;20061;-83
2022/12/18 02:30:20;;;;;;;150.00;46.42;;;-3.80;99.90;;;;;;6164406;23;20023;-83
2022/12/18 02:32:51;;;;;;;154.10;48.80;;;-3.90;99.90;;;;;;6139041;23;20013;-86
2022/12/18 02:35:23;;;;;;;157.07;49.97;;;-4.00;99.90;;;;;;6163724;23;20013;-83
2022/12/18 02:37:53;;;;;;;159.85;51.78;;;-4.00;99.90;;;;;;6164038;23;20016;-83
2022/12/18 02:40:22;;;;;;;164.25;49.38;;;-4.00;99.90;;;;;;6139133;23;20084;-83
2022/12/18 02:42:48;;;;;;;169.23;52.80;;;-4.00;99.90;;;;;;6163732;23;20248;-83
2022/12/18 02:45:16;;;;;;;152.48;47.55;;;-4.00;99.90;;;;;;6139618;23;20067;-82
2022/12/18 02:47:47;;;;;;;144.20;45.35;;;-4.10;99.90;;;;;;6163922;23;20016;-83
2022/12/18 02:50:41;;;;;;;142.35;47.05;;;-4.20;99.90;;;;;;6163265;23;20008;-83
2022/12/18 02:53:29;;;;;;;147.20;43.28;;;-4.20;99.90;;;;;;6163791;23;20005;-83
2022/12/18 02:56:09;;;;;;;150.57;47.33;;;-4.30;99.90;;;;;;6139210;23;20011;-83
2022/12/18 02:59:00;;;;;;;147.45;48.40;;;-4.30;99.90;;;;;;6163917;23;20032;-82
2022/12/18 03:01:59;;;;;;;155.20;47.47;;;-4.30;99.90;;;;;;6141621;23;20009;-83
2022/12/18 03:04:28;;;;;;;159.82;47.17;;;-4.30;99.90;;;;;;6139048;23;20044;-83
2022/12/18 03:06:59;;;;;;;167.02;48.60;;;-4.30;99.90;;;;;;6188207;23;20013;-83
2022/12/18 03:09:32;;;;;;;157.25;46.90;;;-4.30;99.90;;;;;;6138949;23;20024;-83
2022/12/18 03:12:22;;;;;;;153.75;48.05;;;-4.40;99.90;;;;;;6138966;23;20001;-82
2022/12/18 03:14:56;;;;;;;145.48;44.63;;;-4.40;99.90;;;;;;6140059;23;20044;-82
2022/12/18 03:17:26;;;;;;;158.02;47.72;;;-4.50;99.90;;;;;;6164554;23;20025;-82
2022/12/18 03:19:56;;;;;;;149.52;47.15;;;-4.60;99.90;;;;;;6189009;23;20009;-82
2022/12/18 03:22:27;;;;;;;143.45;45.53;;;-4.60;99.90;;;;;;6189631;23;20045;-82
2022/12/18 03:24:54;;;;;;;156.70;47.78;;;-4.60;99.90;;;;;;6163880;23;20036;-82
2022/12/18 03:27:22;;;;;;;146.45;46.47;;;-4.70;99.90;;;;;;6139035;23;20043;-83
2022/12/18 03:30:07;;;;;;;124.05;43.47;;;-4.80;99.90;;;;;;6140099;23;20055;-83
2022/12/18 03:32:54;;;;;;;147.57;45.25;;;-4.80;99.90;;;;;;6166376;23;20028;-82
2022/12/18 03:35:28;;;;;;;146.25;43.85;;;-4.90;99.90;;;;;;6147910;23;20005;-82
2022/12/18 03:37:54;;;;;;;137.93;43.92;;;-4.90;99.90;;;;;;6193311;23;20024;-82
2022/12/18 03:40:26;;;;;;;143.25;42.60;;;-4.90;99.90;;;;;;6144673;23;20398;-81
2022/12/18 03:43:03;;;;;;;138.45;45.03;;;-4.90;99.90;;;;;;6165769;23;20005;-83
2022/12/18 03:45:35;;;;;;;162.32;47.25;;;-5.00;99.90;;;;;;6164503;23;20001;-83
2022/12/18 03:48:19;;;;;;;157.52;48.92;;;-5.00;99.90;;;;;;6163723;23;20075;-83
2022/12/18 03:50:56;;;;;;;172.40;48.90;;;-5.00;99.90;;;;;;6188337;23;20005;-83
2022/12/18 03:53:41;;;;;;;167.57;49.10;;;-5.00;99.90;;;;;;6138857;23;20009;-84
2022/12/18 03:56:08;;;;;;;152.90;46.53;;;-5.00;99.90;;;;;;6163603;23;20059;-84
2022/12/18 03:58:39;;;;;;;184.95;50.42;;;-5.00;99.90;;;;;;6139648;23;20009;-84
2022/12/18 04:01:32;;;;;;;153.15;46.78;;;-4.90;99.90;;;;;;6141947;23;20017;-84
2022/12/18 04:04:01;;;;;;;165.80;47.83;;;-5.00;99.90;;;;;;6162918;23;20037;-84
2022/12/18 04:06:30;;;;;;;155.02;44.33;;;-5.10;99.90;;;;;;6091168;23;20024;-84
2022/12/18 04:08:58;;;;;;;164.23;49.92;;;-5.20;99.90;;;;;;6163770;23;20012;-83
2022/12/18 04:11:25;;;;;;;148.60;47.88;;;-5.20;99.90;;;;;;6163148;23;20009;-84
2022/12/18 04:13:57;;;;;;;161.48;50.83;;;-5.20;99.90;;;;;;6138764;23;20394;-84
2022/12/18 04:16:24;;;;;;;160.35;48.53;;;-5.20;99.90;;;;;;6163397;23;20009;-84
2022/12/18 04:18:54;;;;;;;147.25;48.75;;;-5.20;99.90;;;;;;6187800;23;20005;-83
2022/12/18 04:21:22;;;;;;;162.13;50.05;;;-5.20;99.90;;;;;;6138890;23;20092;-83
2022/12/18 04:23:49;;;;;;;156.80;50.50;;;-5.10;99.90;;;;;;6114992;23;20013;-85
2022/12/18 04:26:17;;;;;;;143.82;48.22;;;-5.20;99.90;;;;;;6138985;23;20332;-83
2022/12/18 04:29:03;;;;;;;150.43;46.83;;;-5.30;99.90;;;;;;6102142;23;20013;-83
2022/12/18 04:31:29;;;;;;;152.82;48.53;;;-5.30;99.90;;;;;;6138863;23;20013;-84
2022/12/18 04:33:56;;;;;;;138.38;46.30;;;-5.40;99.90;;;;;;6138706;23;20362;-83
2022/12/18 04:36:22;;;;;;;154.07;48.42;;;-5.40;99.90;;;;;;6138361;23;20015;-84
2022/12/18 04:38:49;;;;;;;136.50;47.25;;;-5.40;99.90;;;;;;6138513;23;20336;-84
2022/12/18 04:41:16;;;;;;;148.05;47.60;;;-5.50;99.90;;;;;;6163389;23;20079;-84
2022/12/18 04:43:45;;;;;;;146.93;49.17;;;-5.50;99.90;;;;;;6187720;23;20305;-83
2022/12/18 04:46:11;;;;;;;152.93;49.63;;;-5.50;99.90;;;;;;6138367;23;20016;-83
2022/12/18 04:48:37;;;;;;;151.00;48.03;;;-5.50;99.90;;;;;;6187065;23;20013;-84
2022/12/18 04:51:04;;;;;;;145.85;49.88;;;-5.50;99.90;;;;;;6162271;23;20013;-83
2022/12/18 04:53:30;;;;;;;147.18;48.75;;;-5.50;99.90;;;;;;6137883;23;20015;-83
2022/12/18 04:56:08;;;;;;;148.10;50.65;;;-5.50;99.90;;;;;;6162604;23;20017;-84
2022/12/18 04:58:35;;;;;;;148.60;48.70;;;-5.50;99.90;;;;;;6162489;23;20015;-83
2022/12/18 05:01:01;;;;;;;144.57;50.08;;;-5.60;99.90;;;;;;6137955;23;20019;-83
2022/12/18 05:03:27;;;;;;;148.30;49.17;;;-5.50;99.90;;;;;;6161658;23;20005;-84
2022/12/18 05:05:53;;;;;;;158.32;52.95;;;-5.60;99.90;;;;;;6162398;23;20070;-82
2022/12/18 05:08:19;;;;;;;150.55;47.40;;;-5.60;99.90;;;;;;6137790;23;20009;-84
2022/12/18 05:10:45;;;;;;;142.55;48.67;;;-5.60;99.90;;;;;;6162817;23;20282;-83
2022/12/18 05:13:11;;;;;;;136.55;47.17;;;-5.70;99.90;;;;;;6113659;23;20016;-84
2022/12/18 05:15:37;;;;;;;125.38;44.80;;;-5.70;99.90;;;;;;6137914;23;20017;-84
2022/12/18 05:18:03;;;;;;;133.43;47.40;;;-5.70;99.90;;;;;;6089240;23;20009;-83
2022/12/18 05:20:29;;;;;;;129.88;47.15;;;-5.70;99.90;;;;;;6137447;23;20009;-84
2022/12/18 05:22:56;;;;;;;139.77;46.25;;;-5.80;99.90;;;;;;6188307;23;20390;-84
2022/12/18 05:25:22;;;;;;;133.43;44.10;;;-5.80;99.90;;;;;;6113065;23;20275;-84
2022/12/18 05:27:48;;;;;;;121.55;42.58;;;-5.80;99.90;;;;;;6113245;23;20005;-84
2022/12/18 05:30:15;;;;;;;114.25;41.47;;;-5.90;99.90;;;;;;6112982;23;20016;-90
2022/12/18 05:32:42;;;;;;;124.70;42.28;;;-5.80;99.90;;;;;;6137377;23;20009;-84
2022/12/18 05:35:10;;;;;;;124.57;44.63;;;-5.90;99.90;;;;;;6137184;23;20005;-84
2022/12/18 05:37:36;;;;;;;118.00;45.70;;;-5.90;99.90;;;;;;6137640;23;20269;-85
2022/12/18 05:40:04;;;;;;;115.82;43.67;;;-5.90;99.90;;;;;;6161914;23;20009;-84
2022/12/18 05:42:31;;;;;;;121.18;43.38;;;-6.00;99.90;;;;;;6161969;23;20016;-84
2022/12/18 05:44:56;;;;;;;114.43;42.78;;;-6.00;99.90;;;;;;6188188;23;20271;-84
2022/12/18 05:47:22;;;;;;;122.18;42.58;;;-5.90;99.90;;;;;;6137488;23;20020;-84
2022/12/18 05:49:48;;;;;;;109.68;41.03;;;-6.10;99.90;;;;;;6112574;23;20334;-84
2022/12/18 05:52:14;;;;;;;109.18;41.55;;;-6.10;99.90;;;;;;6065554;23;20009;-84
2022/12/18 05:54:40;;;;;;;121.57;42.20;;;-6.10;99.90;;;;;;6188202;23;20012;-84
2022/12/18 05:57:06;;;;;;;108.82;41.55;;;-6.20;99.90;;;;;;6162091;23;20005;-83
2022/12/18 05:59:32;;;;;;;118.18;44.50;;;-6.20;99.90;;;;;;6137368;23;20009;-84
2022/12/18 06:01:58;;;;;;;105.10;39.55;;;-6.10;99.90;;;;;;6161654;23;20063;-84
2022/12/18 06:04:26;;;;;;;115.22;42.35;;;-6.20;99.90;;;;;;6088423;23;20168;-82
2022/12/18 06:06:51;;;;;;;111.28;40.92;;;-6.20;99.90;;;;;;6133451;23;20405;-84
2022/12/18 06:09:17;;;;;;;106.80;42.40;;;-6.30;99.90;;;;;;6137668;23;20067;-88
2022/12/18 06:11:43;;;;;;;109.78;42.13;;;-6.30;99.90;;;;;;6187319;23;20032;-84
2022/12/18 06:14:09;;;;;;;110.18;41.97;;;-6.30;99.90;;;;;;6189536;23;20076;-84
2022/12/18 06:16:35;;;;;;;111.28;40.72;;;-6.30;99.90;;;;;;6164087;23;20009;-84
2022/12/18 06:19:04;;;;;;;109.45;41.72;;;-6.20;99.90;;;;;;6188071;23;20024;-84
2022/12/18 06:21:31;;;;;;;104.25;42.47;;;-6.30;99.90;;;;;;6163529;23;20036;-84
2022/12/18 06:23:58;;;;;;;112.15;42.20;;;-6.30;99.90;;;;;;6138969;23;20020;-83
2022/12/18 06:26:24;;;;;;;104.72;40.35;;;-6.20;99.90;;;;;;6139041;23;20021;-83
2022/12/18 06:28:50;;;;;;;100.63;39.70;;;-6.20;99.90;;;;;;6188629;23;20409;-84
2022/12/18 06:31:16;;;;;;;96.65;38.22;;;-6.20;99.90;;;;;;6139083;23;20008;-83
2022/12/18 06:33:41;;;;;;;92.25;37.17;;;-6.30;99.90;;;;;;6163019;23;20017;-84
2022/12/18 06:36:10;;;;;;;98.15;38.85;;;-6.30;99.90;;;;;;6163403;23;20017;-84
2022/12/18 06:38:38;;;;;;;96.57;38.17;;;-6.20;99.90;;;;;;6188605;23;20017;-84
2022/12/18 06:41:13;;;;;;;85.88;37.30;;;-6.20;99.90;;;;;;6162767;23;20009;-84
2022/12/18 06:43:39;;;;;;;98.05;37.63;;;-6.20;99.90;;;;;;6138587;23;20020;-84
2022/12/18 06:46:06;;;;;;;83.38;36.17;;;-6.10;99.90;;;;;;6186880;23;20370;-84
2022/12/18 06:48:33;;;;;;;82.15;35.83;;;-6.20;99.90;;;;;;6137786;23;20013;-85
2022/12/18 06:50:59;;;;;;;92.93;37.72;;;-6.20;99.90;;;;;;6186979;23;20063;-84
2022/12/18 06:53:25;;;;;;;86.28;39.47;;;-6.10;99.90;;;;;;6138624;23;20100;-84
2022/12/18 06:55:51;;;;;;;88.28;36.85;;;-6.20;99.90;;;;;;6188409;23;20044;-84
2022/12/18 06:58:17;;;;;;;90.25;35.97;;;-6.20;99.90;;;;;;6114144;23;20013;-84
2022/12/18 07:00:43;;;;;;;84.80;34.03;;;-6.20;99.90;;;;;;6137540;23;20015;-85
2022/12/18 07:03:09;;;;;;;82.20;36.60;;;-6.20;99.90;;;;;;6161851;23;20013;-84
2022/12/18 07:05:40;;;;;;;76.38;32.70;;;-6.20;99.90;;;;;;6114337;23;20016;-84
2022/12/18 07:08:06;;;;;;;84.47;34.70;;;-6.20;99.90;;;;;;6162643;23;20383;-84
2022/12/18 07:10:32;;;;;;;75.93;35.85;;;-6.30;99.90;;;;;;6137112;23;20100;-84
2022/12/18 07:12:58;;;;;;;75.93;32.95;;;-6.30;99.90;;;;;;6163443;23;20037;-85
2022/12/18 07:15:24;;;;;;;78.38;32.95;;;-6.30;99.90;;;;;;6161586;23;20009;-85
2022/12/18 07:17:50;;;;;;;76.97;32.63;;;-6.30;99.90;;;;;;6138028;23;20016;-86
2022/12/18 07:20:16;;;;;;;79.82;31.92;;;-6.30;99.90;;;;;;6163283;23;20016;-84
2022/12/18 07:22:42;;;;;;;81.05;31.48;;;-6.40;99.90;;;;;;6138705;23;20012;-83
2022/12/18 07:25:08;;;;;;;74.95;34.03;;;-6.30;99.90;;;;;;6138529;23;20028;-84
2022/12/18 07:27:34;;;;;;;76.13;32.33;;;-6.30;99.90;;;;;;6112591;23;20009;-84
2022/12/18 07:30:00;;;;;;;69.80;32.15;;;-6.30;99.90;;;;;;6187598;23;20325;-83
2022/12/18 07:32:26;;;;;;;71.13;31.73;;;-6.30;99.90;;;;;;6161460;23;20076;-84
2022/12/18 07:34:52;;;;;;;67.32;30.52;;;-6.30;99.90;;;;;;6088272;23;20322;-84
2022/12/18 07:37:18;;;;;;;71.75;32.20;;;-6.20;99.90;;;;;;6162917;23;20093;-85
2022/12/18 07:39:45;;;;;;;67.63;30.23;;;-6.20;99.90;;;;;;6088575;23;20278;-84
2022/12/18 07:44:55;;;;;;;66.95;28.23;;;-6.20;99.90;;;;;;6142371;23;20041;-84
2022/12/18 07:47:21;;;;;;;67.50;29.92;;;-6.20;99.90;;;;;;6138102;23;20017;-83
2022/12/18 07:49:47;;;;;;;70.78;30.83;;;-6.20;99.90;;;;;;6137433;23;20379;-85
2022/12/18 07:52:13;;;;;;;66.93;29.77;;;-6.10;99.90;;;;;;6138522;23;20013;-84
2022/12/18 07:54:40;;;;;;;67.80;29.38;;;-6.10;99.90;;;;;;6138188;23;20009;-84
2022/12/18 07:57:06;;;;;;;63.97;29.42;;;-6.00;99.90;;;;;;6138300;23;20005;-85
2022/12/18 07:59:32;;;;;;;68.30;32.20;;;-5.90;99.90;;;;;;6113992;23;20141;-84
2022/12/18 08:01:58;;;;;;;62.72;29.88;;;-5.80;99.90;;;;;;6138433;23;20045;-84
2022/12/18 08:04:24;;;;;;;60.25;27.88;;;-5.80;99.90;;;;;;6137933;23;20071;-84
2022/12/18 08:06:51;;;;;;;63.15;28.45;;;-5.60;99.90;;;;;;6113865;23;20382;-84
2022/12/18 08:09:17;;;;;;;67.00;29.33;;;-5.50;99.90;;;;;;6187452;23;20015;-85
2022/12/18 08:11:43;;;;;;;60.67;30.40;;;-5.50;99.90;;;;;;6186324;23;20084;-85
2022/12/18 08:14:09;;;;;;;63.80;29.17;;;-5.50;99.90;;;;;;6089796;23;20005;-87
2022/12/18 08:16:36;;;;;;;63.20;28.55;;;-5.40;99.90;;;;;;6162302;23;20009;-85
2022/12/18 08:19:02;;;;;;;61.30;27.30;;;-5.40;99.90;;;;;;6138206;23;20021;-85
2022/12/18 08:21:30;;;;;;;54.80;28.13;;;-5.30;99.90;;;;;;6162945;23;20011;-86
2022/12/18 08:23:58;;;;;;;53.45;27.83;;;-5.20;99.90;;;;;;6138625;23;20013;-87
2022/12/18 08:26:27;;;;;;;58.13;27.10;;;-5.20;99.90;;;;;;6138700;23;20059;-86
2022/12/18 08:28:55;;;;;;;51.00;26.52;;;-5.10;99.90;;;;;;6162492;23;20461;-86
2022/12/18 08:31:22;;;;;;;54.75;26.20;;;-5.10;99.90;;;;;;6137019;23;20005;-86
2022/12/18 08:33:50;;;;;;;55.60;26.60;;;-5.00;99.90;;;;;;6186070;23;20012;-86
2022/12/18 08:36:17;;;;;;;51.55;25.63;;;-5.00;99.90;;;;;;6137405;23;20009;-85
2022/12/18 08:38:43;;;;;;;52.08;25.38;;;-5.00;99.90;;;;;;6137343;23;20282;-87
2022/12/18 08:41:11;;;;;;;52.90;25.27;;;-4.90;99.90;;;;;;6138069;23;20036;-85
2022/12/18 08:46:23;;;;;;;55.22;25.80;;;-4.80;99.90;;;;;;6187393;23;20016;-86
2022/12/18 08:48:54;;;;;;;48.85;24.65;;;-4.70;99.90;;;;;;6161904;23;20044;-85
2022/12/18 08:51:20;;;;;;;52.17;26.10;;;-4.60;99.90;;;;;;6138681;23;20342;-86
2022/12/18 08:53:46;;;;;;;48.13;25.42;;;-4.40;99.90;;;;;;6137815;23;20274;-86
2022/12/18 08:56:14;;;;;;;46.88;25.30;;;-4.20;99.90;;;;;;6186499;23;20036;-85
2022/12/18 08:58:40;;;;;;;48.45;24.40;;;-4.10;99.90;;;;;;6113449;23;20013;-86
2022/12/18 09:01:09;;;;;;;44.35;23.60;;;-4.00;99.90;;;;;;6162280;23;20020;-85
2022/12/18 09:03:35;;;;;;;43.70;22.95;;;-4.00;99.90;;;;;;6135814;23;20025;-85
2022/12/18 09:06:01;;;;;;;43.13;23.35;;;-3.90;99.90;;;;;;6137079;23;20029;-84
2022/12/18 09:08:27;;;;;;;48.53;23.23;;;-3.90;99.90;;;;;;6137448;23;20040;-84
2022/12/18 09:10:54;;;;;;;51.13;24.75;;;-3.80;99.90;;;;;;6112371;23;20037;-83
2022/12/18 09:13:21;;;;;;;42.22;22.92;;;-3.60;99.90;;;;;;6160690;23;20013;-83
2022/12/18 09:15:55;;;;;;;46.20;23.30;;;-3.40;99.90;;;;;;6162090;23;20009;-84
2022/12/18 09:18:22;;;;;;;42.10;21.77;;;-3.00;99.90;;;;;;6137485;23;20063;-83
2022/12/18 09:20:51;;;;;;;42.63;21.80;;;-2.70;99.90;;;;;;6186941;23;20001;-84
2022/12/18 09:23:17;;;;;;;40.17;21.38;;;-2.70;99.90;;;;;;6186592;23;20433;-84
2022/12/18 09:25:43;;;;;;;38.97;20.48;;;-2.70;99.90;;;;;;6112826;23;20013;-83
2022/12/18 09:28:14;;;;;;;37.78;20.30;;;-2.70;99.90;;;;;;6186312;23;20009;-83
2022/12/18 09:30:44;;;;;;;40.28;20.30;;;-2.40;99.90;;;;;;6186403;23;20017;-83
2022/12/18 09:33:11;;;;;;;39.45;20.20;;;-2.10;99.90;;;;;;6135584;23;20382;-83
2022/12/18 09:35:38;;;;;;;37.47;20.60;;;-2.00;99.90;;;;;;6161402;23;20005;-84
2022/12/18 09:38:05;;;;;;;37.80;19.80;;;-2.20;99.90;;;;;;6160725;23;20048;-84
2022/12/18 09:40:43;;;;;;;36.17;19.02;;;-2.20;99.90;;;;;;6160420;23;20009;-84
2022/12/18 09:43:17;;;;;;;32.70;18.58;;;-2.10;99.90;;;;;;6187211;23;20012;-83
2022/12/18 09:45:46;;;;;;;41.78;21.27;;;-1.60;99.90;;;;;;6186387;23;20106;-83
2022/12/18 09:48:37;;;;;;;36.78;19.38;;;-0.70;99.90;;;;;;6162136;23;20087;-82
2022/12/18 09:51:22;;;;;;;33.22;17.70;;;0.40;99.90;;;;;;6163693;23;20005;-82
2022/12/18 09:53:58;;;;;;;34.05;18.25;;;-0.10;99.90;;;;;;6163129;23;20063;-83
2022/12/18 09:56:28;;;;;;;36.78;18.88;;;-1.10;99.90;;;;;;6163205;23;20001;-82
2022/12/18 09:59:02;;;;;;;31.95;16.95;;;-1.40;99.90;;;;;;6187699;23;20024;-82
2022/12/18 10:01:30;;;;;;;36.83;18.17;;;-1.00;99.90;;;;;;6138664;23;20017;-84
2022/12/18 10:03:56;;;;;;;30.65;17.25;;;-1.20;99.90;;;;;;6162288;23;20363;-83
2022/12/18 10:06:45;;;;;;;32.53;17.77;;;-1.30;99.90;;;;;;6188312;23;20021;-84
2022/12/18 10:09:20;;;;;;;30.60;16.92;;;-1.50;99.90;;;;;;6137924;23;20013;-84
2022/12/18 10:11:59;;;;;;;30.38;16.08;;;-1.70;99.90;;;;;;6162157;23;20013;-85
2022/12/18 10:14:50;;;;;;;27.48;16.10;;;-1.80;99.90;;;;;;6137849;23;20032;-84
2022/12/18 10:17:25;;;;;;;27.13;15.88;;;-1.80;99.90;;;;;;6161962;23;20303;-85
2022/12/18 10:20:22;;;;;;;26.67;15.00;;;-1.80;99.90;;;;;;6162284;23;20032;-84
2022/12/18 10:23:09;;;;;;;27.83;15.80;;;-1.80;99.90;;;;;;6186758;23;20398;-85
2022/12/18 10:25:44;;;;;;;27.38;15.30;;;-1.80;99.90;;;;;;6138052;23;20390;-86
2022/12/18 10:28:14;;;;;;;26.37;14.53;;;-1.80;99.90;;;;;;6162789;23;20084;-85
2022/12/18 10:30:41;;;;;;;26.88;14.13;;;-1.80;99.90;;;;;;6163215;23;20289;-84
2022/12/18 10:33:20;;;;;;;26.52;14.95;;;-1.80;99.90;;;;;;6160180;23;20044;-85
2022/12/18 10:35:51;;;;;;;26.55;15.63;;;-1.80;99.90;;;;;;6187156;23;20012;-88
2022/12/18 10:38:17;;;;;;;25.23;14.60;;;-1.80;99.90;;;;;;6162800;23;20001;-85
2022/12/18 10:41:13;;;;;;;28.92;14.68;;;-1.80;99.90;;;;;;6187691;23;20001;-86
2022/12/18 10:43:40;;;;;;;21.98;13.20;;;-1.70;99.90;;;;;;6162049;23;20009;-85
2022/12/18 10:46:09;;;;;;;22.75;14.00;;;-1.70;99.90;;;;;;6137860;23;20017;-84
2022/12/18 10:48:48;;;;;;;23.33;13.48;;;-1.70;99.90;;;;;;6162644;23;20044;-86
2022/12/18 10:51:34;;;;;;;24.40;13.25;;;-1.70;99.90;;;;;;6138283;23;20064;-85
2022/12/18 10:54:22;;;;;;;22.73;13.48;;;-1.70;99.90;;;;;;6188230;23;20274;-87
2022/12/18 10:56:49;;;;;;;24.20;13.25;;;-1.60;99.90;;;;;;6162776;23;20013;-86
2022/12/18 10:59:17;;;;;;;24.40;12.50;;;-1.60;99.90;;;;;;6187295;23;20009;-86
2022/12/18 11:01:56;;;;;;;20.25;11.98;;;-1.60;99.90;;;;;;6163662;23;20411;-87
2022/12/18 11:04:28;;;;;;;20.48;12.35;;;-1.50;99.90;;;;;;6161933;23;20017;-86
2022/12/18 11:06:54;;;;;;;21.45;13.50;;;-1.50;99.90;;;;;;6160807;23;20097;-84
2022/12/18 11:09:21;;;;;;;20.02;11.45;;;-1.40;99.90;;;;;;6188163;23;20401;-85
2022/12/18 11:11:53;;;;;;;20.58;11.77;;;-1.40;99.90;;;;;;6163244;23;20016;-90
2022/12/18 11:14:26;;;;;;;19.42;11.18;;;-1.30;99.90;;;;;;6187029;23;20005;-84
2022/12/18 11:16:54;;;;;;;18.08;10.52;;;-1.30;99.90;;;;;;6138045;23;20278;-86
2022/12/18 11:19:34;;;;;;;16.17;10.38;;;-1.30;99.90;;;;;;6186248;23;20005;-83
2022/12/18 11:22:03;;;;;;;16.52;9.63;;;-1.20;99.90;;;;;;6137469;23;20009;-82
2022/12/18 11:24:33;;;;;;;15.57;9.63;;;-1.20;99.90;;;;;;6140955;23;20009;-83
2022/12/18 11:27:04;;;;;;;14.70;9.07;;;-1.20;99.90;;;;;;6165198;23;20013;-84
2022/12/18 11:29:39;;;;;;;14.70;8.73;;;-1.20;99.90;;;;;;6140106;23;20040;-83
2022/12/18 11:32:36;;;;;;;17.60;9.13;;;-1.20;99.90;;;;;;6167403;23;20017;-82
2022/12/18 11:35:19;;;;;;;18.35;10.20;;;-1.20;99.90;;;;;;6168994;23;20084;-84
2022/12/18 11:37:53;;;;;;;17.83;9.95;;;-1.20;99.90;;;;;;6197131;23;20001;-84
2022/12/18 11:40:27;;;;;;;14.98;8.80;;;-1.20;99.90;;;;;;6193477;23;20020;-83
2022/12/18 11:43:24;;;;;;;14.95;8.82;;;-1.20;99.90;;;;;;6165135;23;20015;-83
2022/12/18 11:46:11;;;;;;;15.27;9.18;;;-1.10;99.90;;;;;;6185134;23;20009;-83
2022/12/18 11:48:49;;;;;;;14.35;9.02;;;-1.10;99.90;;;;;;6171416;23;20005;-84
2022/12/18 11:51:41;;;;;;;18.85;10.05;;;-1.10;99.90;;;;;;6197267;23;20027;-83
2022/12/18 11:54:13;;;;;;;15.75;9.35;;;-1.10;99.90;;;;;;6194124;23;20005;-84
2022/12/18 11:56:47;;;;;;;16.02;9.55;;;-1.20;99.90;;;;;;6194718;23;20000;-84
2022/12/18 11:59:16;;;;;;;17.40;9.65;;;-1.10;99.90;;;;;;6168053;23;20009;-84
2022/12/18 12:02:11;;;;;;;16.25;9.20;;;-1.20;99.90;;;;;;6164210;23;20005;-83
2022/12/18 12:08:59;;;;;;;14.60;9.13;;;-1.20;99.90;;;;;;6071865;23;20029;-84
2022/12/18 12:16:10;;;;;;;17.60;9.20;;;-1.10;99.90;;;;;;6190175;23;20019;-83
2022/12/18 12:18:35;;;;;;;15.82;8.82;;;-1.10;99.90;;;;;;6164129;23;20016;-83
2022/12/18 12:21:15;;;;;;;17.35;8.57;;;-1.00;99.90;;;;;;6163695;23;20614;-84
2022/12/18 12:24:01;;;;;;;16.85;9.50;;;-1.00;99.90;;;;;;6164073;23;20028;-84
2022/12/18 12:26:36;;;;;;;13.45;7.57;;;-0.90;99.90;;;;;;6153556;23;20013;-83
2022/12/18 12:29:27;;;;;;;17.30;9.13;;;-0.90;99.90;;;;;;6190112;23;20039;-83
2022/12/18 12:32:32;;;;;;;15.95;8.50;;;-0.80;99.90;;;;;;6163580;23;20310;-84
2022/12/18 12:35:14;;;;;;;16.85;8.85;;;-0.80;99.90;;;;;;6139121;23;20009;-83
2022/12/18 12:37:52;;;;;;;15.10;8.52;;;-0.80;99.90;;;;;;6140225;23;20033;-84
2022/12/18 12:40:20;;;;;;;18.35;9.30;;;-0.70;99.90;;;;;;6164427;23;20027;-81
2022/12/18 12:45:48;;;;;;;15.60;8.63;;;-0.70;99.90;;;;;;6164084;23;20019;-84
2022/12/18 12:48:34;;;;;;;15.65;9.38;;;-0.70;99.90;;;;;;6163504;23;20060;-83
2022/12/18 12:51:34;;;;;;;13.98;8.88;;;-0.70;99.90;;;;;;6164636;23;20005;-85
2022/12/18 12:54:02;;;;;;;15.57;9.15;;;-0.70;99.90;;;;;;6173525;23;20005;-84
2022/12/18 12:56:55;;;;;;;14.82;8.88;;;-0.70;99.90;;;;;;6139058;23;20370;-83
2022/12/18 12:59:38;;;;;;;15.77;9.15;;;-0.70;99.90;;;;;;6129802;23;20051;-83
2022/12/18 13:02:38;;;;;;;14.85;9.07;;;-0.70;99.90;;;;;;6139402;23;20322;-83
2022/12/18 13:05:22;;;;;;;15.23;9.30;;;-0.70;99.90;;;;;;6138662;23;20013;-83